Time;durP1;ratioP1;P1;durP2;ratioP2;P2;SDS_P1;SDS_P2;PMS_P1;PMS_P2;Temp;Humidity;BMP_temperature;BMP_pressure;BME280_temperature;BME280_humidity;BME280_pressure;Samples;Min_cycle;Max_cycle;Signal;HPM_P1;HPM_P2
2022/11/08 00:46:49;;;;;;;1.25;0.70;;;;;;;12.03;87.43;100791.28;10234946;28;20866;-78
2022/11/08 00:52:08;;;;;;;1.70;0.87;;;;;;;11.94;87.15;100789.44;10228378;28;20118;-78
2022/11/08 00:57:28;;;;;;;3.25;0.70;;;;;;;11.94;87.14;100792.06;10219928;29;20091;-77
2022/11/08 01:03:17;;;;;;;3.40;1.05;;;;;;;11.91;87.16;100788.50;10205418;28;20181;-78
2022/11/08 01:08:14;;;;;;;1.83;0.75;;;;;;;11.89;87.17;100790.19;10218704;29;20346;-78
2022/11/08 01:13:17;;;;;;;0.93;0.60;;;;;;;11.91;87.13;100783.25;10218612;29;20051;-78
2022/11/08 01:18:19;;;;;;;2.15;1.48;;;;;;;11.90;87.12;100782.34;10216903;29;20042;-78
2022/11/08 01:23:21;;;;;;;1.48;0.75;;;;;;;11.86;87.03;100785.81;10236127;28;20069;-78
2022/11/08 01:28:22;;;;;;;0.88;0.28;;;;;;;11.81;87.00;100788.41;10234916;28;20047;-78
2022/11/08 01:33:24;;;;;;;0.75;0.57;;;;;;;11.77;86.85;100783.97;10235731;28;20044;-78
2022/11/08 01:38:26;;;;;;;2.00;0.50;;;;;;;11.71;87.16;100794.38;10217911;29;20047;-79
2022/11/08 01:43:37;;;;;;;1.52;0.57;;;;;;;11.67;87.01;100790.81;10219414;29;20035;-77
2022/11/08 01:48:45;;;;;;;0.55;0.20;;;;;;;11.61;87.20;100779.38;10238567;28;20094;-78
2022/11/08 01:53:48;;;;;;;3.88;0.93;;;;;;;11.58;87.17;100788.09;10236756;28;20066;-78
2022/11/08 01:58:53;;;;;;;0.30;0.25;;;;;;;11.56;86.94;100789.81;10235330;28;20043;-77
2022/11/08 02:03:56;;;;;;;1.83;1.33;;;;;;;11.48;87.29;100778.34;10235789;28;20051;-77
2022/11/08 02:09:01;;;;;;;2.33;1.08;;;;;;;11.40;87.16;100782.59;10236035;28;20118;-77
2022/11/08 02:14:03;;;;;;;0.63;0.35;;;;;;;11.37;87.33;100770.34;10235786;28;20043;-78
2022/11/08 02:19:10;;;;;;;1.45;0.75;;;;;;;11.24;87.48;100773.63;10218431;29;20035;-77
2022/11/08 02:24:13;;;;;;;2.83;0.47;;;;;;;11.17;87.64;100767.44;10201671;29;20047;-77
2022/11/08 02:29:22;;;;;;;1.23;0.47;;;;;;;11.19;87.64;100764.84;10233513;28;20118;-77
2022/11/08 02:34:35;;;;;;;1.55;0.55;;;;;;;11.20;87.86;100766.59;10217525;29;20490;-77
2022/11/08 02:39:36;;;;;;;1.48;0.40;;;;;;;11.13;87.71;100770.88;10233999;28;20058;-77
2022/11/08 02:44:38;;;;;;;1.13;1.02;;;;;;;11.16;87.81;100770.91;10234037;28;20031;-78
2022/11/08 02:49:39;;;;;;;2.80;0.60;;;;;;;11.06;87.75;100764.63;10216173;29;20463;-78
2022/11/08 02:54:41;;;;;;;3.15;1.13;;;;;;;10.99;88.09;100769.78;10233676;28;20083;-78
2022/11/08 02:59:43;;;;;;;1.05;0.95;;;;;;;10.98;87.94;100755.81;10232861;28;20051;-77
2022/11/08 03:04:44;;;;;;;2.45;1.35;;;;;;;10.95;88.26;100750.53;10223098;29;20054;-79
2022/11/08 03:09:46;;;;;;;0.88;0.50;;;;;;;10.89;88.19;100750.44;10222564;29;20055;-78
2022/11/08 03:14:48;;;;;;;2.50;1.20;;;;;;;10.89;88.37;100756.53;10240027;28;20412;-78
2022/11/08 03:19:49;;;;;;;1.15;0.50;;;;;;;10.86;88.34;100734.66;10214592;29;20043;-78
2022/11/08 03:24:51;;;;;;;1.20;0.70;;;;;;;10.76;88.69;100745.00;10240054;28;20040;-77
2022/11/08 03:29:52;;;;;;;3.22;0.90;;;;;;;10.72;88.73;100740.56;10240236;28;20095;-77
2022/11/08 03:34:54;;;;;;;4.15;1.33;;;;;;;10.68;88.77;100741.38;10206244;29;20047;-78
2022/11/08 03:39:55;;;;;;;2.58;1.35;;;;;;;10.66;89.02;100735.25;10238941;28;20614;-78
2022/11/08 03:44:57;;;;;;;2.72;0.80;;;;;;;10.61;89.11;100740.41;10222168;29;20117;-78
2022/11/08 03:49:58;;;;;;;2.42;0.60;;;;;;;10.61;89.15;100726.41;10238343;28;20059;-77
2022/11/08 03:55:00;;;;;;;2.13;0.47;;;;;;;10.58;89.18;100750.84;10238613;28;20054;-78
2022/11/08 04:00:03;;;;;;;1.65;0.57;;;;;;;10.57;89.25;100742.97;10238347;28;20055;-77
2022/11/08 04:05:13;;;;;;;0.63;0.50;;;;;;;10.59;89.42;100741.22;10239530;29;20063;-77
2022/11/08 04:10:16;;;;;;;2.97;0.93;;;;;;;10.67;89.34;100749.19;10237947;29;20051;-77
2022/11/08 04:15:20;;;;;;;1.52;1.23;;;;;;;10.72;89.30;100747.53;10204997;28;20050;-77
2022/11/08 04:25:43;;;;;;;1.27;0.63;;;;;;;10.72;89.38;100737.94;10239568;29;20039;-78
2022/11/08 04:30:44;;;;;;;0.45;0.45;;;;;;;10.65;89.18;100733.47;10219042;28;20523;-78
2022/11/08 04:35:47;;;;;;;0.73;0.40;;;;;;;10.56;89.34;100725.47;10238318;29;20086;-78
2022/11/08 04:40:48;;;;;;;1.00;0.77;;;;;;;10.49;89.36;100721.84;10237243;29;20504;-76
2022/11/08 04:45:50;;;;;;;2.05;0.85;;;;;;;10.47;89.48;100714.84;10237458;29;20047;-79
2022/11/08 04:50:51;;;;;;;2.00;0.95;;;;;;;10.32;89.63;100708.47;10229091;29;20917;-78
2022/11/08 04:55:59;;;;;;;0.38;0.38;;;;;;;10.25;89.77;100704.88;10237670;29;20131;-78
2022/11/08 05:01:02;;;;;;;1.23;0.80;;;;;;;10.10;89.86;100694.13;10236840;29;20514;-78
2022/11/08 05:06:08;;;;;;;0.50;0.50;;;;;;;10.02;89.90;100690.50;10237329;29;20043;-79
2022/11/08 05:11:12;;;;;;;0.30;0.30;;;;;;;9.94;90.21;100681.63;10236357;29;20463;-78
2022/11/08 05:16:20;;;;;;;1.10;0.68;;;;;;;9.82;90.54;100677.94;10236586;29;20466;-78
2022/11/08 05:26:44;;;;;;;1.13;0.60;;;;;;;9.72;90.75;100676.00;10236645;28;20355;-79
2022/11/08 05:31:46;;;;;;;1.33;0.52;;;;;;;9.69;90.93;100671.59;10235720;28;20050;-78
2022/11/08 05:36:47;;;;;;;0.68;0.68;;;;;;;9.62;91.22;100656.63;10203591;29;20322;-78
2022/11/08 05:41:49;;;;;;;2.15;1.13;;;;;;;9.56;91.46;100664.38;10218320;29;20062;-78
2022/11/08 05:46:51;;;;;;;2.17;0.40;;;;;;;9.57;91.38;100653.06;10203369;29;20310;-78
2022/11/08 05:51:52;;;;;;;0.68;0.50;;;;;;;9.50;91.33;100654.69;10235333;29;20058;-78
2022/11/08 05:56:54;;;;;;;0.60;0.57;;;;;;;9.41;91.55;100658.84;10218097;29;20047;-78
2022/11/08 06:01:55;;;;;;;3.20;1.40;;;;;;;9.28;91.47;100648.16;10209392;29;20067;-78
2022/11/08 06:06:57;;;;;;;2.08;1.17;;;;;;;9.22;91.78;100642.81;10235709;29;20402;-78
2022/11/08 06:11:59;;;;;;;0.50;0.50;;;;;;;9.19;91.98;100647.97;10234757;29;20051;-78
2022/11/08 06:17:00;;;;;;;1.92;1.23;;;;;;;9.25;91.91;100653.31;10218123;29;20199;-78
2022/11/08 06:22:02;;;;;;;5.55;0.73;;;;;;;9.35;92.33;100643.94;10201204;29;20393;-78
2022/11/08 06:27:03;;;;;;;0.93;0.60;;;;;;;9.39;92.37;100635.31;10234736;29;20534;-78
2022/11/08 06:32:05;;;;;;;3.95;0.40;;;;;;;9.46;92.10;100644.16;10233535;28;20121;-78
2022/11/08 06:37:06;;;;;;;0.40;0.40;;;;;;;9.50;92.24;100643.34;10237703;28;20039;-78
2022/11/08 06:42:08;;;;;;;1.55;0.93;;;;;;;9.56;92.01;100630.38;10209237;28;20055;-78
2022/11/08 06:47:11;;;;;;;0.80;0.63;;;;;;;9.62;91.77;100627.00;10225157;28;20043;-78
2022/11/08 06:52:12;;;;;;;1.00;0.50;;;;;;;9.67;91.66;100626.25;10240841;29;20460;-77
2022/11/08 06:57:14;;;;;;;4.05;0.73;;;;;;;9.70;91.24;100622.81;10240891;29;20046;-79
2022/11/08 07:02:15;;;;;;;2.05;0.63;;;;;;;9.72;91.01;100618.50;10241616;29;20051;-78
2022/11/08 07:07:17;;;;;;;1.98;1.23;;;;;;;9.80;90.83;100616.00;10225081;29;20051;-78
2022/11/08 07:12:19;;;;;;;0.50;0.50;;;;;;;9.87;90.57;100597.81;10223452;29;20055;-78
2022/11/08 07:17:20;;;;;;;0.30;0.30;;;;;;;9.97;90.29;100595.34;10224895;28;20110;-79
2022/11/08 07:22:22;;;;;;;0.68;0.63;;;;;;;9.97;90.29;100595.34;10223903;29;20106;-78
2022/11/08 07:27:23;;;;;;;1.02;0.75;;;;;;;10.67;89.40;100603.44;10242068;29;20051;-78
2022/11/08 07:32:25;;;;;;;1.83;0.93;;;;;;;11.38;88.36;100609.56;10240138;28;20051;-78
2022/11/08 07:37:26;;;;;;;1.65;1.00;;;;;;;11.83;86.41;100592.50;10240988;29;20067;-78
2022/11/08 07:42:28;;;;;;;3.05;0.80;;;;;;;11.25;85.24;100582.31;10223436;29;20043;-78
2022/11/08 07:48:00;;;;;;;0.77;0.68;;;;;;;11.01;84.83;100580.31;10221528;28;20137;-78
2022/11/08 07:53:07;;;;;;;0.47;0.47;;;;;;;12.09;84.63;100573.50;10239389;28;20043;-78
2022/11/08 07:58:09;;;;;;;3.95;1.27;;;;;;;12.62;82.53;100574.72;10239487;28;20059;-79
2022/11/08 08:03:12;;;;;;;2.35;0.98;;;;;;;12.61;81.21;100575.59;10238764;28;20047;-79
2022/11/08 08:08:14;;;;;;;1.15;0.70;;;;;;;11.97;80.97;100573.44;10222643;29;20051;-78
2022/11/08 08:13:16;;;;;;;0.98;0.47;;;;;;;11.61;81.40;100562.59;10240610;28;20134;-76
2022/11/08 08:18:20;;;;;;;0.28;0.17;;;;;;;11.54;81.75;100567.75;10222936;28;20042;-76
2022/11/08 08:23:21;;;;;;;2.10;0.40;;;;;;;11.46;82.06;100565.94;10211219;29;20427;-76
2022/11/08 08:28:23;;;;;;;5.28;0.43;;;;;;;11.67;82.19;100552.16;10214124;29;20574;-76
2022/11/08 08:33:24;;;;;;;1.55;0.60;;;;;;;11.83;81.80;100550.53;10182694;28;20117;-75
2022/11/08 08:38:31;;;;;;;0.30;0.30;;;;;;;11.90;81.65;100535.72;10196107;29;20516;-76
2022/11/08 08:43:33;;;;;;;0.40;0.40;;;;;;;11.90;81.27;100529.59;10222891;28;20039;-75
2022/11/08 08:48:37;;;;;;;0.30;0.30;;;;;;;11.89;81.34;100535.69;10229251;29;20098;-75
2022/11/08 08:53:38;;;;;;;0.47;0.32;;;;;;;11.85;81.24;100530.44;10236573;28;20479;-76
2022/11/08 08:58:40;;;;;;;1.27;0.40;;;;;;;11.93;80.79;100534.91;10236090;28;20094;-75
2022/11/08 09:03:42;;;;;;;0.30;0.20;;;;;;;11.95;80.19;100530.53;10225193;28;20109;-76
2022/11/08 09:08:44;;;;;;;0.30;0.30;;;;;;;12.01;79.95;100535.84;10226143;28;20047;-75
2022/11/08 09:13:45;;;;;;;0.60;0.50;;;;;;;12.26;79.42;100507.13;10235693;28;20074;-75
2022/11/08 09:18:47;;;;;;;2.35;0.68;;;;;;;12.56;78.89;100511.66;10223281;28;20071;-76
2022/11/08 09:23:49;;;;;;;1.92;0.82;;;;;;;12.89;78.17;100508.25;10228786;28;20497;-76
2022/11/08 09:28:50;;;;;;;1.58;0.60;;;;;;;13.18;77.48;100504.84;10208877;28;20472;-76
2022/11/08 09:33:52;;;;;;;2.33;0.95;;;;;;;12.95;76.62;100498.66;10223342;28;20051;-76
2022/11/08 09:38:53;;;;;;;0.65;0.55;;;;;;;12.76;76.59;100487.22;10211653;29;20069;-75
2022/11/08 09:44:17;;;;;;;0.65;0.47;;;;;;;12.78;76.56;100481.09;10226795;28;20055;-75
2022/11/08 09:49:27;;;;;;;4.28;0.77;;;;;;;12.89;76.15;100489.88;10202049;28;20055;-77
2022/11/08 09:54:40;;;;;;;1.58;0.75;;;;;;;12.95;76.04;100488.16;10228055;28;20051;-76
2022/11/08 09:59:53;;;;;;;0.43;0.40;;;;;;;12.93;75.72;100485.53;10232638;28;20579;-75
2022/11/08 10:05:05;;;;;;;1.25;0.57;;;;;;;12.98;75.70;100464.50;10216325;29;20054;-75
2022/11/08 10:10:34;;;;;;;0.47;0.47;;;;;;;12.94;75.80;100450.50;10232453;28;20078;-75
2022/11/08 10:15:44;;;;;;;0.25;0.25;;;;;;;12.98;75.58;100446.09;10211360;28;20455;-76
2022/11/08 10:21:18;;;;;;;1.25;0.45;;;;;;;12.95;75.53;100446.97;10228405;29;20559;-75
2022/11/08 10:26:24;;;;;;;1.50;0.85;;;;;;;13.21;75.59;100438.22;10213671;28;20305;-77
2022/11/08 10:31:31;;;;;;;0.95;0.50;;;;;;;13.41;75.16;100440.94;10212397;28;20078;-75
2022/11/08 10:36:39;;;;;;;0.40;0.40;;;;;;;13.44;74.81;100438.28;10241957;28;20059;-76
2022/11/08 10:41:57;;;;;;;0.70;0.43;;;;;;;13.42;74.42;100450.53;10223956;29;20062;-76
2022/11/08 10:47:01;;;;;;;0.13;0.13;;;;;;;13.44;74.28;100435.66;10215333;28;20567;-75
2022/11/08 10:52:19;;;;;;;0.40;0.30;;;;;;;13.53;74.22;100435.66;10218202;28;20043;-75
2022/11/08 10:57:33;;;;;;;1.80;0.70;;;;;;;13.59;73.87;100419.84;10211547;28;20404;-75
2022/11/08 11:02:35;;;;;;;1.48;0.60;;;;;;;13.68;73.54;100418.97;10236040;28;20053;-75
2022/11/08 11:07:37;;;;;;;0.65;0.40;;;;;;;13.77;72.92;100412.81;10213770;28;20035;-77
2022/11/08 11:12:38;;;;;;;2.15;0.68;;;;;;;13.81;72.66;100413.69;10232374;28;20291;-75
2022/11/08 11:17:43;;;;;;;0.40;0.40;;;;;;;13.96;72.09;100393.47;10215956;28;20527;-75
2022/11/08 11:22:45;;;;;;;0.80;0.50;;;;;;;14.12;71.39;100399.53;10224193;28;20052;-74
2022/11/08 11:27:53;;;;;;;2.55;0.70;;;;;;;14.30;70.71;100398.59;10226989;28;20055;-74
2022/11/08 11:33:02;;;;;;;2.80;1.20;;;;;;;14.30;70.71;100398.59;10204646;28;20047;-76
2022/11/08 11:38:10;;;;;;;0.98;0.55;;;;;;;14.66;69.92;100388.78;10206791;28;20051;-75
2022/11/08 11:43:36;;;;;;;0.40;0.40;;;;;;;14.76;69.46;100396.66;10223879;28;20043;-75
2022/11/08 11:49:03;;;;;;;0.82;0.50;;;;;;;14.77;68.89;100396.66;10194696;28;20055;-76
2022/11/08 11:54:06;;;;;;;0.30;0.30;;;;;;;14.67;68.71;100395.81;10220522;28;20058;-75
2022/11/08 11:59:37;;;;;;;0.57;0.28;;;;;;;14.66;68.36;100393.19;10231207;28;20411;-76
2022/11/08 12:04:56;;;;;;;0.25;0.25;;;;;;;14.75;67.88;100387.00;10200330;28;20150;-75
2022/11/08 12:10:16;;;;;;;1.45;0.40;;;;;;;14.80;67.30;100386.09;10228186;29;20432;-75
2022/11/08 12:16:03;;;;;;;1.25;0.40;;;;;;;14.81;67.12;100381.69;10232462;29;20043;-75
2022/11/08 12:21:19;;;;;;;0.80;0.60;;;;;;;14.84;66.69;100368.47;10195724;28;20545;-74
2022/11/08 12:26:35;;;;;;;3.92;0.63;;;;;;;14.88;66.50;100364.94;10234852;28;20034;-74
2022/11/08 12:32:01;;;;;;;0.60;0.40;;;;;;;14.96;66.12;100362.25;10209568;28;20059;-74
2022/11/08 12:37:14;;;;;;;1.02;0.40;;;;;;;15.08;65.83;100367.41;10247423;28;20042;-76
2022/11/08 12:42:45;;;;;;;0.30;0.30;;;;;;;15.16;65.25;100369.97;10221852;28;20042;-75
2022/11/08 12:47:56;;;;;;;0.52;0.30;;;;;;;15.18;64.89;100384.91;10198840;28;20043;-76
2022/11/08 12:53:16;;;;;;;0.30;0.30;;;;;;;15.25;64.86;100384.84;10232410;29;20459;-76
2022/11/08 12:58:56;;;;;;;0.90;0.50;;;;;;;15.21;64.81;100373.47;10220072;29;20047;-78
2022/11/08 13:04:26;;;;;;;0.50;0.30;;;;;;;15.18;64.59;100363.81;10112270;29;20048;-77
2022/11/08 13:09:52;;;;;;;0.28;0.28;;;;;;;15.14;64.81;100361.22;10203198;28;20051;-80
2022/11/08 13:14:54;;;;;;;0.85;0.68;;;;;;;15.05;64.79;100350.75;10233716;29;20464;-79
2022/11/08 13:19:59;;;;;;;0.68;0.30;;;;;;;15.07;65.00;100355.09;10236857;28;20047;-80
2022/11/08 13:25:11;;;;;;;1.88;0.38;;;;;;;15.07;65.14;100356.88;10219252;29;20086;-77
2022/11/08 13:30:13;;;;;;;0.47;0.30;;;;;;;15.05;64.84;100345.47;10212834;28;20062;-76
2022/11/08 13:35:28;;;;;;;0.43;0.40;;;;;;;15.06;64.61;100334.91;10216391;28;20055;-79
2022/11/08 13:40:30;;;;;;;0.63;0.40;;;;;;;15.05;64.80;100340.19;10205079;29;20555;-76
2022/11/08 13:45:33;;;;;;;0.60;0.50;;;;;;;15.03;64.84;100314.72;10233683;28;20039;-76
2022/11/08 13:50:48;;;;;;;0.80;0.45;;;;;;;15.13;64.82;100294.44;10219076;29;20071;-77
2022/11/08 13:55:56;;;;;;;1.30;0.47;;;;;;;15.12;64.65;100290.03;10236317;29;20047;-78
2022/11/08 14:00:58;;;;;;;0.55;0.30;;;;;;;15.13;64.46;100296.16;10236277;29;20542;-76
2022/11/08 14:06:32;;;;;;;0.70;0.55;;;;;;;15.12;64.55;100310.25;10235662;29;20051;-77
2022/11/08 14:11:51;;;;;;;1.20;0.50;;;;;;;15.08;64.30;100312.03;10223661;29;20162;-77
2022/11/08 14:17:16;;;;;;;1.35;0.65;;;;;;;15.03;64.22;100311.22;10218429;29;20045;-76
2022/11/08 14:22:22;;;;;;;1.80;0.73;;;;;;;14.98;64.29;100299.81;10218419;29;20047;-77
2022/11/08 14:27:40;;;;;;;1.02;0.50;;;;;;;14.97;64.32;100293.69;10227794;29;20066;-77
2022/11/08 14:32:41;;;;;;;0.73;0.40;;;;;;;14.99;64.58;100283.13;10212855;28;20114;-78
2022/11/08 14:37:43;;;;;;;0.88;0.43;;;;;;;14.96;64.54;100283.16;10235686;28;20043;-76
2022/11/08 14:42:45;;;;;;;0.47;0.30;;;;;;;14.94;64.52;100303.38;10234054;28;20571;-76
2022/11/08 14:47:52;;;;;;;1.80;0.50;;;;;;;14.91;64.02;100301.66;10217444;28;20519;-77
2022/11/08 14:52:54;;;;;;;1.10;0.45;;;;;;;14.87;64.37;100299.91;10234317;28;20043;-76
2022/11/08 14:57:55;;;;;;;0.93;0.50;;;;;;;14.89;64.18;100313.09;10219751;28;20066;-77
2022/11/08 15:03:04;;;;;;;0.55;0.47;;;;;;;14.85;63.89;100323.66;10241422;28;20035;-76
2022/11/08 15:08:19;;;;;;;0.43;0.40;;;;;;;14.78;63.87;100315.81;10241815;28;20315;-76
2022/11/08 15:13:20;;;;;;;1.38;0.70;;;;;;;14.82;63.71;100318.41;10241420;28;20136;-76
2022/11/08 15:18:28;;;;;;;1.17;0.52;;;;;;;14.80;63.32;100316.66;10240590;28;20086;-75
2022/11/08 15:23:46;;;;;;;1.13;0.47;;;;;;;14.77;63.15;100303.50;10241150;28;20051;-75
2022/11/08 15:29:18;;;;;;;0.35;0.35;;;;;;;14.70;63.14;100304.44;10222555;29;20050;-74
2022/11/08 15:34:31;;;;;;;0.65;0.40;;;;;;;14.65;62.74;100302.72;10241594;28;20039;-77
2022/11/08 15:39:38;;;;;;;0.40;0.40;;;;;;;14.55;62.85;100308.06;10232955;29;20043;-76
2022/11/08 15:44:58;;;;;;;1.10;0.60;;;;;;;14.52;63.01;100295.75;10241502;28;20125;-79
2022/11/08 15:50:00;;;;;;;0.40;0.40;;;;;;;14.47;62.88;100279.09;10221508;29;20044;-79
2022/11/08 15:55:02;;;;;;;0.60;0.50;;;;;;;14.46;63.08;100290.53;10239749;28;20473;-76
2022/11/08 16:00:04;;;;;;;0.95;0.50;;;;;;;14.35;63.09;100287.09;10239277;29;20055;-76
2022/11/08 16:05:24;;;;;;;0.10;0.10;;;;;;;14.28;63.18;100295.03;10239109;29;20316;-78
2022/11/08 16:10:42;;;;;;;0.25;0.25;;;;;;;14.27;63.05;100295.91;10237745;28;20416;-76
2022/11/08 16:15:44;;;;;;;0.85;0.30;;;;;;;14.22;63.42;100295.06;10239497;29;20039;-79
2022/11/08 16:20:46;;;;;;;0.30;0.25;;;;;;;14.27;63.47;100284.50;10239878;29;20106;-78
2022/11/08 16:25:53;;;;;;;0.50;0.47;;;;;;;14.21;63.44;100288.03;10222698;29;20098;-75
2022/11/08 16:30:55;;;;;;;1.27;0.55;;;;;;;14.22;63.64;100295.06;10237636;28;20114;-76
2022/11/08 16:35:59;;;;;;;1.77;0.60;;;;;;;14.23;63.93;100301.19;10238526;29;20090;-75
2022/11/08 16:41:01;;;;;;;3.42;0.88;;;;;;;14.26;63.77;100301.19;10220361;29;20562;-76
2022/11/08 16:46:04;;;;;;;0.68;0.30;;;;;;;14.24;63.84;100295.94;10221080;29;20047;-74
2022/11/08 16:51:16;;;;;;;0.55;0.43;;;;;;;14.26;64.04;100291.53;10220834;29;20047;-75
2022/11/08 16:56:18;;;;;;;0.75;0.45;;;;;;;14.22;64.10;100299.47;10239008;29;20388;-73
2022/11/08 17:01:31;;;;;;;0.73;0.45;;;;;;;14.23;64.07;100303.84;10236194;28;20477;-76
2022/11/08 17:06:32;;;;;;;0.57;0.47;;;;;;;14.20;64.39;100310.00;10234209;28;20464;-78
2022/11/08 17:11:34;;;;;;;1.33;0.63;;;;;;;14.14;64.28;100313.56;10213852;28;20046;-75
2022/11/08 17:16:36;;;;;;;0.82;0.50;;;;;;;14.05;64.59;100305.69;10210662;28;20523;-76
2022/11/08 17:21:37;;;;;;;0.85;0.57;;;;;;;14.07;64.73;100306.56;10213041;28;20404;-76
2022/11/08 17:26:45;;;;;;;1.25;0.47;;;;;;;13.96;65.11;100303.09;10219800;29;20047;-78
2022/11/08 17:31:47;;;;;;;2.05;0.75;;;;;;;13.95;65.38;100309.25;10239433;28;20051;-75
2022/11/08 17:36:51;;;;;;;0.50;0.50;;;;;;;13.91;65.58;100305.75;10247737;28;20090;-75
2022/11/08 17:41:53;;;;;;;1.77;0.75;;;;;;;13.91;65.69;100315.41;10236747;29;20074;-76
2022/11/08 17:46:54;;;;;;;0.88;0.50;;;;;;;13.94;66.09;100318.03;10237222;29;20047;-75
2022/11/08 17:51:56;;;;;;;0.73;0.43;;;;;;;14.00;65.99;100310.09;10235949;29;20415;-76
2022/11/08 17:56:57;;;;;;;0.55;0.55;;;;;;;13.94;66.17;100311.00;10235592;28;20188;-76
2022/11/08 18:01:59;;;;;;;0.90;0.65;;;;;;;13.91;66.15;100318.91;10218002;29;20419;-75
2022/11/08 18:07:01;;;;;;;2.33;0.57;;;;;;;13.95;66.10;100312.75;10236211;29;20484;-75
2022/11/08 18:12:02;;;;;;;0.95;0.57;;;;;;;13.92;66.53;100306.63;10246451;28;20105;-76
2022/11/08 18:17:04;;;;;;;1.42;0.60;;;;;;;13.87;66.72;100306.66;10226441;28;20041;-75
2022/11/08 18:22:05;;;;;;;1.13;0.70;;;;;;;13.78;66.82;100319.81;10234108;29;20054;-75
2022/11/08 18:27:07;;;;;;;1.20;0.63;;;;;;;13.78;66.98;100314.56;10235027;29;20070;-75
2022/11/08 18:32:09;;;;;;;0.50;0.50;;;;;;;13.70;67.16;100322.50;10234700;28;20039;-75
2022/11/08 18:37:10;;;;;;;2.00;0.57;;;;;;;13.61;67.43;100327.78;10242544;28;20151;-75
2022/11/08 18:42:12;;;;;;;0.85;0.45;;;;;;;13.58;67.57;100318.13;10241914;28;20054;-75
2022/11/08 18:47:14;;;;;;;2.72;0.68;;;;;;;13.57;67.80;100316.41;10241948;29;20054;-75
2022/11/08 18:52:16;;;;;;;1.20;0.50;;;;;;;13.58;68.09;100307.59;10240308;29;20427;-76
2022/11/08 18:57:18;;;;;;;2.00;0.60;;;;;;;13.48;68.35;100315.53;10241720;29;20094;-76
2022/11/08 19:02:20;;;;;;;1.60;0.80;;;;;;;13.49;68.48;100306.78;10239521;29;20220;-77
2022/11/08 19:07:23;;;;;;;0.70;0.47;;;;;;;13.41;68.68;100309.44;10218619;28;20487;-75
2022/11/08 19:12:28;;;;;;;1.13;0.60;;;;;;;13.39;69.01;100319.06;10240273;28;20047;-74
2022/11/08 19:17:30;;;;;;;0.57;0.45;;;;;;;13.35;69.22;100315.56;10239535;29;20071;-76
2022/11/08 19:22:32;;;;;;;0.77;0.60;;;;;;;13.34;69.52;100313.81;10239212;29;20495;-76
2022/11/08 19:27:33;;;;;;;1.55;0.85;;;;;;;13.35;69.62;100312.06;10240631;29;20082;-75
2022/11/08 19:32:35;;;;;;;0.73;0.60;;;;;;;13.35;69.65;100312.06;10220582;28;20415;-74
2022/11/08 19:37:37;;;;;;;2.05;0.90;;;;;;;13.27;69.94;100310.28;10239853;29;20504;-76
2022/11/08 19:42:39;;;;;;;0.50;0.40;;;;;;;13.24;70.16;100312.94;10238501;28;20047;-76
2022/11/08 19:47:40;;;;;;;1.83;0.80;;;;;;;13.24;70.31;100317.28;10239190;28;20051;-75
2022/11/08 19:52:42;;;;;;;0.73;0.50;;;;;;;13.23;70.57;100326.94;10230136;28;20063;-75
2022/11/08 19:57:43;;;;;;;1.17;0.65;;;;;;;13.25;70.60;100335.69;10231113;28;20047;-75
2022/11/08 20:02:45;;;;;;;1.13;0.45;;;;;;;13.19;70.85;100333.06;10237788;28;20058;-74
2022/11/08 20:07:47;;;;;;;0.38;0.38;;;;;;;13.19;71.03;100346.22;10238430;28;20382;-74
2022/11/08 20:12:48;;;;;;;0.95;0.60;;;;;;;13.19;71.14;100347.97;10237476;28;20327;-75
2022/11/08 20:17:50;;;;;;;0.45;0.45;;;;;;;13.19;71.34;100345.34;10237611;28;20053;-76
2022/11/08 20:22:52;;;;;;;1.73;0.70;;;;;;;13.13;71.62;100356.75;10233176;28;20292;-76
2022/11/08 20:27:53;;;;;;;1.63;0.80;;;;;;;13.14;71.76;100341.88;10237361;28;20523;-76
2022/11/08 20:32:55;;;;;;;1.25;0.80;;;;;;;13.17;71.93;100336.59;10219041;28;20055;-75
2022/11/08 20:37:57;;;;;;;1.75;0.77;;;;;;;13.06;72.22;100348.00;10204136;28;20047;-75
2022/11/08 20:42:58;;;;;;;0.50;0.50;;;;;;;13.08;72.32;100353.25;10237310;28;20055;-75
2022/11/08 20:48:00;;;;;;;1.70;0.52;;;;;;;13.11;72.36;100348.00;10237128;28;20265;-75
2022/11/08 20:53:03;;;;;;;1.05;0.57;;;;;;;13.10;72.64;100351.50;10235524;28;20102;-74
2022/11/08 20:58:04;;;;;;;2.35;0.70;;;;;;;13.03;72.83;100357.63;10234678;28;20058;-77
2022/11/08 21:03:06;;;;;;;0.88;0.75;;;;;;;13.09;73.01;100345.38;10217266;28;20050;-74
2022/11/08 21:08:08;;;;;;;2.45;0.57;;;;;;;13.06;73.18;100344.47;10218266;29;20039;-75
2022/11/08 21:13:31;;;;;;;0.88;0.60;;;;;;;13.05;73.24;100343.59;10217868;29;20697;-78
2022/11/08 21:18:34;;;;;;;3.42;0.73;;;;;;;13.05;73.58;100338.34;10234886;28;20047;-76
2022/11/08 21:23:37;;;;;;;1.70;0.70;;;;;;;13.02;73.75;100343.59;10236149;28;20080;-77
2022/11/08 21:28:40;;;;;;;0.65;0.50;;;;;;;12.98;73.92;100344.47;10234755;28;21606;-74
2022/11/08 21:33:42;;;;;;;0.32;0.32;;;;;;;13.04;74.03;100348.88;10235000;28;20058;-75
2022/11/08 21:38:43;;;;;;;1.15;0.70;;;;;;;13.02;74.15;100346.25;10234582;28;20047;-74
2022/11/08 21:43:46;;;;;;;0.88;0.50;;;;;;;13.05;74.22;100356.75;10234666;28;20047;-75
2022/11/08 21:48:56;;;;;;;0.30;0.30;;;;;;;12.99;74.44;100353.25;10217112;29;20047;-79
2022/11/08 21:53:59;;;;;;;0.55;0.40;;;;;;;12.93;74.58;100358.50;10228038;28;20179;-75
2022/11/08 21:59:02;;;;;;;2.53;0.52;;;;;;;12.94;74.82;100361.13;10233511;28;20094;-75
2022/11/08 22:04:03;;;;;;;0.95;0.50;;;;;;;12.96;74.94;100361.13;10218131;29;20058;-75
2022/11/08 22:09:05;;;;;;;1.80;0.98;;;;;;;12.87;75.09;100364.63;10215726;29;20044;-76
2022/11/08 22:14:07;;;;;;;0.80;0.55;;;;;;;12.86;75.35;100360.25;10216690;29;20419;-75
2022/11/08 22:19:08;;;;;;;1.15;0.63;;;;;;;12.82;75.51;100359.38;10233380;28;20142;-75
2022/11/08 22:24:13;;;;;;;0.40;0.40;;;;;;;12.82;75.60;100362.00;10216229;29;20176;-74
2022/11/08 22:29:16;;;;;;;0.80;0.55;;;;;;;12.77;75.81;100361.09;10192031;29;20040;-75
2022/11/08 22:34:17;;;;;;;1.35;0.63;;;;;;;12.70;75.96;100359.34;10234528;28;20118;-76
2022/11/08 22:39:20;;;;;;;0.52;0.52;;;;;;;12.73;76.05;100357.59;10234747;28;20043;-74
2022/11/08 22:44:22;;;;;;;0.68;0.40;;;;;;;12.76;76.07;100355.84;10234174;28;20043;-75
2022/11/08 22:49:24;;;;;;;0.57;0.57;;;;;;;12.69;76.44;100366.34;10232532;28;20499;-74
2022/11/08 22:54:25;;;;;;;3.10;0.93;;;;;;;12.64;76.59;100352.34;10216173;29;20068;-74
2022/11/08 22:59:27;;;;;;;0.45;0.40;;;;;;;12.62;76.85;100358.47;10215062;29;20043;-76
2022/11/08 23:04:28;;;;;;;0.93;0.32;;;;;;;12.63;77.00;100360.22;10215935;29;20062;-74
2022/11/08 23:09:30;;;;;;;1.42;0.75;;;;;;;12.67;77.11;100348.81;10232774;28;20047;-75
2022/11/08 23:25:11;;;;;;;0.25;0.25;;;;;;;12.77;77.22;100345.34;10234574;29;20051;-75
2022/11/08 23:35:35;;;;;;;3.47;0.77;;;;;;;12.78;77.39;100343.63;10241663;29;20418;-75
2022/11/08 23:46:04;;;;;;;1.48;0.70;;;;;;;12.96;77.37;100348.00;10240918;29;20511;-74
2022/11/08 23:51:06;;;;;;;1.00;0.63;;;;;;;12.99;77.34;100342.75;10239364;29;20502;-76
2022/11/08 23:56:08;;;;;;;0.38;0.38;;;;;;;12.87;77.25;100344.47;10222042;29;20055;-76
